createdAt,value
2022-12-14T00:00:03.714Z,82.17
2022-12-14T00:01:03.812Z,82.39
2022-12-14T00:02:03.944Z,82.70
2022-12-14T00:03:04.147Z,82.39
2022-12-14T00:04:03.320Z,82.07
2022-12-14T00:05:03.571Z,82.39
2022-12-14T00:06:03.727Z,82.59
2022-12-14T00:07:03.442Z,82.35
2022-12-14T00:08:03.293Z,81.93
2022-12-14T00:09:03.326Z,81.82
2022-12-14T00:10:03.117Z,81.82
2022-12-14T00:11:02.841Z,81.93
2022-12-14T00:12:03.481Z,81.61
2022-12-14T00:13:03.344Z,81.61
2022-12-14T00:14:03.297Z,81.61
2022-12-14T00:15:03.345Z,81.40
2022-12-14T00:16:03.438Z,81.30
2022-12-14T00:17:04.017Z,81.51
2022-12-14T00:18:03.492Z,82.07
2022-12-14T00:19:03.459Z,82.03
2022-12-14T00:20:03.888Z,82.03
2022-12-14T00:21:03.622Z,81.72
2022-12-14T00:22:03.167Z,81.51
2022-12-14T00:23:03.287Z,81.82
2022-12-14T00:24:03.262Z,81.82
2022-12-14T00:25:03.091Z,81.72
2022-12-14T00:26:03.218Z,81.93
2022-12-14T00:27:03.243Z,81.72
2022-12-14T00:28:03.618Z,81.61
2022-12-14T00:29:03.605Z,81.20
2022-12-14T00:30:03.261Z,81.40
2022-12-14T00:31:03.628Z,81.61
2022-12-14T00:32:02.765Z,81.61
2022-12-14T00:33:02.964Z,81.61
2022-12-14T00:34:03.121Z,81.72
2022-12-14T00:35:03.131Z,81.40
2022-12-14T00:36:02.785Z,81.54
2022-12-14T00:37:02.748Z,81.72
2022-12-14T00:38:02.884Z,81.96
2022-12-14T00:39:03.085Z,82.49
2022-12-14T00:40:03.032Z,82.70
2022-12-14T00:41:03.073Z,82.70
2022-12-14T00:42:03.122Z,83.01
2022-12-14T00:43:03.205Z,83.01
2022-12-14T00:44:03.734Z,83.54
2022-12-14T00:45:03.054Z,83.89
2022-12-14T00:46:03.096Z,83.96
2022-12-14T00:47:03.164Z,83.75
2022-12-14T00:48:03.271Z,83.22
2022-12-14T00:49:03.189Z,82.91
2022-12-14T00:50:03.498Z,82.81
2022-12-14T00:51:03.395Z,82.70
2022-12-14T00:52:03.885Z,82.49
2022-12-14T00:53:03.708Z,82.14
2022-12-14T00:54:03.382Z,82.14
2022-12-14T00:55:03.324Z,81.82
2022-12-14T00:56:03.540Z,82.07
2022-12-14T00:57:02.854Z,83.01
2022-12-14T00:58:02.923Z,82.95
2022-12-14T00:59:02.707Z,83.15
2022-12-14T01:00:02.601Z,82.84
2022-12-14T01:01:02.893Z,83.26
2022-12-14T01:02:05.468Z,83.68
2022-12-14T01:03:04.900Z,83.79
2022-12-14T01:04:05.434Z,83.68
2022-12-14T01:05:05.312Z,83.37
2022-12-14T01:06:04.924Z,83.26
2022-12-14T01:07:04.295Z,82.84
2022-12-14T01:08:04.029Z,82.32
2022-12-14T01:09:03.946Z,81.79
2022-12-14T01:10:04.066Z,81.58
2022-12-14T01:11:03.923Z,81.69
2022-12-14T01:12:04.117Z,81.79
2022-12-14T01:13:04.606Z,81.58
2022-12-14T01:14:04.511Z,81.90
2022-12-14T01:15:04.100Z,81.79
2022-12-14T01:16:04.262Z,81.90
2022-12-14T01:17:04.427Z,82.10
2022-12-14T01:18:04.325Z,82.00
2022-12-14T01:19:04.833Z,82.21
2022-12-14T01:20:04.407Z,82.32
2022-12-14T01:21:04.647Z,82.39
2022-12-14T01:22:05.157Z,82.28
2022-12-14T01:23:05.018Z,82.07
2022-12-14T01:24:04.897Z,81.65
2022-12-14T01:25:05.210Z,81.76
2022-12-14T01:26:05.052Z,81.96
2022-12-14T01:27:04.463Z,81.65
2022-12-14T01:28:04.566Z,81.65
2022-12-14T01:29:04.589Z,81.54
2022-12-14T01:30:04.356Z,81.76
2022-12-14T01:31:04.350Z,81.61
2022-12-14T01:32:04.778Z,81.20
2022-12-14T01:33:04.866Z,81.09
2022-12-14T01:34:04.592Z,81.20
2022-12-14T01:35:04.698Z,81.09
2022-12-14T01:36:04.732Z,80.77
2022-12-14T01:37:04.498Z,80.67
2022-12-14T01:38:04.599Z,80.77
2022-12-14T01:39:04.607Z,80.35
2022-12-14T01:40:04.584Z,80.15
2022-12-14T01:41:04.375Z,80.35
2022-12-14T01:42:03.481Z,80.57
2022-12-14T01:43:03.883Z,80.25
2022-12-14T01:44:03.796Z,80.04
2022-12-14T01:45:03.892Z,80.04
2022-12-14T01:46:03.836Z,80.35
2022-12-14T01:47:08.879Z,80.04
2022-12-14T01:48:04.071Z,80.04
2022-12-14T01:49:03.619Z,79.62
2022-12-14T01:50:03.701Z,79.62
2022-12-14T01:51:03.948Z,80.04
2022-12-14T01:52:03.765Z,79.72
2022-12-14T01:53:03.925Z,79.83
2022-12-14T01:54:04.212Z,79.41
2022-12-14T01:55:04.021Z,79.83
2022-12-14T01:56:04.118Z,79.93
2022-12-14T01:57:04.464Z,80.35
2022-12-14T01:58:04.468Z,80.77
2022-12-14T01:59:04.090Z,80.74
2022-12-14T02:00:07.404Z,80.25
2022-12-14T02:01:04.202Z,80.63
2022-12-14T02:02:03.443Z,80.63
2022-12-14T02:03:03.497Z,80.21
2022-12-14T02:04:03.636Z,80.11
2022-12-14T02:05:03.624Z,79.90
2022-12-14T02:06:03.329Z,80.11
2022-12-14T02:07:03.759Z,80.32
2022-12-14T02:08:03.808Z,80.18
2022-12-14T02:09:03.489Z,79.86
2022-12-14T02:10:03.650Z,79.75
2022-12-14T02:11:03.824Z,79.97
2022-12-14T02:12:03.728Z,79.86
2022-12-14T02:13:03.659Z,79.75
2022-12-14T02:14:03.913Z,79.75
2022-12-14T02:15:04.141Z,79.55
2022-12-14T02:16:03.991Z,79.65
2022-12-14T02:17:03.995Z,79.55
2022-12-14T02:18:04.035Z,79.13
2022-12-14T02:19:04.143Z,78.92
2022-12-14T02:20:04.240Z,79.02
2022-12-14T02:21:04.138Z,79.13
2022-12-14T02:22:03.974Z,79.02
2022-12-14T02:23:03.944Z,79.23
2022-12-14T02:24:04.429Z,79.09
2022-12-14T02:25:04.319Z,79.09
2022-12-14T02:26:04.205Z,78.99
2022-12-14T02:27:04.005Z,78.71
2022-12-14T02:28:04.269Z,78.71
2022-12-14T02:29:04.257Z,79.02
2022-12-14T02:30:04.281Z,79.02
2022-12-14T02:31:04.304Z,79.02
2022-12-14T02:32:03.353Z,78.92
2022-12-14T02:33:03.465Z,79.02
2022-12-14T02:34:03.367Z,79.13
2022-12-14T02:35:03.269Z,78.92
2022-12-14T02:36:03.598Z,78.92
2022-12-14T02:37:03.336Z,79.13
2022-12-14T02:38:03.588Z,79.23
2022-12-14T02:39:03.487Z,79.02
2022-12-14T02:40:03.486Z,78.81
2022-12-14T02:41:03.347Z,78.92
2022-12-14T02:42:03.741Z,79.13
2022-12-14T02:43:03.656Z,79.38
2022-12-14T02:44:03.538Z,79.58
2022-12-14T02:45:03.572Z,79.48
2022-12-14T02:46:03.471Z,79.38
2022-12-14T02:47:03.467Z,79.27
2022-12-14T02:48:03.707Z,79.58
2022-12-14T02:49:03.246Z,79.90
2022-12-14T02:50:03.140Z,80.11
2022-12-14T02:51:03.081Z,80.21
2022-12-14T02:52:03.614Z,80.00
2022-12-14T02:53:03.537Z,80.00
2022-12-14T02:54:03.418Z,80.00
2022-12-14T02:55:03.305Z,80.21
2022-12-14T02:56:03.458Z,80.57
2022-12-14T02:57:04.125Z,81.12
2022-12-14T02:58:04.045Z,81.76
2022-12-14T02:59:03.958Z,82.28
2022-12-14T03:00:03.884Z,82.39
2022-12-14T03:01:04.028Z,82.07
2022-12-14T03:02:03.986Z,81.72
2022-12-14T03:03:03.577Z,81.86
2022-12-14T03:04:03.579Z,82.49
2022-12-14T03:05:03.589Z,82.91
2022-12-14T03:06:03.640Z,82.70
2022-12-14T03:07:03.644Z,82.28
2022-12-14T03:08:03.558Z,82.17
2022-12-14T03:09:03.501Z,82.39
2022-12-14T03:10:03.394Z,82.39
2022-12-14T03:11:03.566Z,82.17
2022-12-14T03:12:04.323Z,82.17
2022-12-14T03:13:04.308Z,82.59
2022-12-14T03:14:04.107Z,82.59
2022-12-14T03:15:04.004Z,82.81
2022-12-14T03:16:04.138Z,83.44
2022-12-14T03:17:03.447Z,83.44
2022-12-14T03:18:03.219Z,83.44
2022-12-14T03:19:03.119Z,83.54
2022-12-14T03:20:02.983Z,83.64
2022-12-14T03:21:03.155Z,83.75
2022-12-14T03:22:03.432Z,83.96
2022-12-14T03:23:03.969Z,84.06
2022-12-14T03:24:03.821Z,83.96
2022-12-14T03:25:03.798Z,84.06
2022-12-14T03:26:03.783Z,83.86
2022-12-14T03:27:03.890Z,83.22
2022-12-14T03:28:03.637Z,82.70
2022-12-14T03:29:03.503Z,82.59
2022-12-14T03:30:03.553Z,82.81
2022-12-14T03:31:03.871Z,83.01
2022-12-14T03:32:04.018Z,83.22
2022-12-14T03:33:03.956Z,83.12
2022-12-14T03:34:03.866Z,83.96
2022-12-14T03:35:03.874Z,84.38
2022-12-14T03:36:03.807Z,84.27
2022-12-14T03:37:03.048Z,84.38
2022-12-14T03:38:03.560Z,84.17
2022-12-14T03:39:03.475Z,83.75
2022-12-14T03:40:03.556Z,83.54
2022-12-14T03:41:03.406Z,83.01
2022-12-14T03:42:03.988Z,83.01
2022-12-14T03:43:03.832Z,83.33
2022-12-14T03:44:03.830Z,83.68
2022-12-14T03:45:03.704Z,83.75
2022-12-14T03:46:03.664Z,83.54
2022-12-14T03:47:03.014Z,83.22
2022-12-14T03:48:03.472Z,83.33
2022-12-14T03:49:03.394Z,83.12
2022-12-14T03:50:02.880Z,83.22
2022-12-14T03:51:03.073Z,83.54
2022-12-14T03:52:03.435Z,83.64
2022-12-14T03:53:03.298Z,84.52
2022-12-14T03:54:03.479Z,85.15
2022-12-14T03:55:03.378Z,85.57
2022-12-14T03:56:03.273Z,85.93
2022-12-14T03:57:03.476Z,86.10
2022-12-14T03:58:02.731Z,85.78
2022-12-14T03:59:02.781Z,85.57
2022-12-14T04:00:03.135Z,85.78
2022-12-14T04:01:03.189Z,85.53
2022-12-14T04:02:04.827Z,85.32
2022-12-14T04:03:04.732Z,85.01
2022-12-14T04:04:04.151Z,85.11
2022-12-14T04:05:04.317Z,84.80
2022-12-14T04:06:04.180Z,85.01
2022-12-14T04:07:03.934Z,85.01
2022-12-14T04:08:03.955Z,85.01
2022-12-14T04:09:03.828Z,84.55
2022-12-14T04:10:03.738Z,84.34
2022-12-14T04:11:03.548Z,84.23
2022-12-14T04:12:03.914Z,84.23
2022-12-14T04:13:03.793Z,84.66
2022-12-14T04:14:04.039Z,84.76
2022-12-14T04:15:03.999Z,84.44
2022-12-14T04:16:03.904Z,84.23
2022-12-14T04:17:04.344Z,83.81
2022-12-14T04:18:04.238Z,83.71
2022-12-14T04:19:04.111Z,83.81
2022-12-14T04:20:03.995Z,83.81
2022-12-14T04:21:03.846Z,83.71
2022-12-14T04:22:04.422Z,83.71
2022-12-14T04:23:04.452Z,83.47
2022-12-14T04:24:04.391Z,83.25
2022-12-14T04:25:04.336Z,83.57
2022-12-14T04:26:04.280Z,83.88
2022-12-14T04:27:03.938Z,83.57
2022-12-14T04:28:03.582Z,83.36
2022-12-14T04:29:03.700Z,84.03
2022-12-14T04:30:03.650Z,84.23
2022-12-14T04:31:03.584Z,84.09
2022-12-14T04:32:04.130Z,83.67
2022-12-14T04:33:03.906Z,83.47
2022-12-14T04:34:03.902Z,83.67
2022-12-14T04:35:03.865Z,83.78
2022-12-14T04:36:03.935Z,84.23
2022-12-14T04:37:04.285Z,84.76
2022-12-14T04:38:04.202Z,84.76
2022-12-14T04:39:03.649Z,84.51
2022-12-14T04:40:03.707Z,84.41
2022-12-14T04:41:03.863Z,84.41
2022-12-14T04:42:04.469Z,84.20
2022-12-14T04:43:04.326Z,84.20
2022-12-14T04:44:04.480Z,84.20
2022-12-14T04:45:04.407Z,84.09
2022-12-14T04:46:04.371Z,84.20
2022-12-14T04:47:03.312Z,83.98
2022-12-14T04:48:03.505Z,83.88
2022-12-14T04:49:03.436Z,83.88
2022-12-14T04:50:03.366Z,83.57
2022-12-14T04:51:03.160Z,83.67
2022-12-14T04:52:05.456Z,83.98
2022-12-14T04:53:03.550Z,85.14
2022-12-14T04:54:03.432Z,85.56
2022-12-14T04:55:03.652Z,85.35
2022-12-14T04:56:03.289Z,84.62
2022-12-14T04:57:03.268Z,84.30
2022-12-14T04:58:03.624Z,84.30
2022-12-14T04:59:03.386Z,83.78
2022-12-14T05:00:03.682Z,83.25
2022-12-14T05:01:03.428Z,83.11
2022-12-14T05:02:03.979Z,82.94
2022-12-14T05:03:04.019Z,83.47
2022-12-14T05:04:08.176Z,84.62
2022-12-14T05:05:03.894Z,85.39
2022-12-14T05:06:03.840Z,85.91
2022-12-14T05:07:03.768Z,86.86
2022-12-14T05:08:03.973Z,87.11
2022-12-14T05:09:03.941Z,87.52
2022-12-14T05:10:03.978Z,88.05
2022-12-14T05:11:23.249Z,87.80
2022-12-14T05:12:04.060Z,87.59
2022-12-14T05:13:04.649Z,87.34
2022-12-14T05:14:04.671Z,86.71
2022-12-14T05:15:04.574Z,85.77
2022-12-14T05:16:03.973Z,84.30
2022-12-14T05:17:08.114Z,83.67
2022-12-14T05:18:03.768Z,83.15
2022-12-14T05:19:03.453Z,82.10
2022-12-14T05:20:03.486Z,81.68
2022-12-14T05:21:03.474Z,81.57
2022-12-14T05:22:03.822Z,81.47
2022-12-14T05:23:03.844Z,81.57
2022-12-14T05:24:03.455Z,81.79
2022-12-14T05:25:03.916Z,81.57
2022-12-14T05:26:03.793Z,81.26
2022-12-14T05:27:04.000Z,81.05
2022-12-14T05:28:04.531Z,80.84
2022-12-14T05:29:04.421Z,81.05
2022-12-14T05:30:04.305Z,80.63
2022-12-14T05:31:04.238Z,80.74
2022-12-14T05:32:03.256Z,80.74
2022-12-14T05:33:03.169Z,80.74
2022-12-14T05:34:03.331Z,80.53
2022-12-14T05:35:03.712Z,80.84
2022-12-14T05:36:03.397Z,80.88
2022-12-14T05:37:03.335Z,80.88
2022-12-14T05:38:03.368Z,80.88
2022-12-14T05:39:03.227Z,80.67
2022-12-14T05:40:03.433Z,80.88
2022-12-14T05:41:03.221Z,81.09
2022-12-14T05:42:03.356Z,81.40
2022-12-14T05:43:03.614Z,81.51
2022-12-14T05:44:03.476Z,81.93
2022-12-14T05:45:03.765Z,81.89
2022-12-14T05:46:03.899Z,81.68
2022-12-14T05:47:03.971Z,81.72
2022-12-14T05:48:04.132Z,81.89
2022-12-14T05:49:04.024Z,82.10
2022-12-14T05:50:03.872Z,82.42
2022-12-14T05:51:03.871Z,82.42
2022-12-14T05:52:03.553Z,81.89
2022-12-14T05:53:03.457Z,81.68
2022-12-14T05:54:03.611Z,81.26
2022-12-14T05:55:04.686Z,81.05
2022-12-14T05:56:03.963Z,80.63
2022-12-14T05:57:03.952Z,80.53
2022-12-14T05:58:03.870Z,80.42
2022-12-14T05:59:04.328Z,80.32
2022-12-14T06:00:04.313Z,80.42
2022-12-14T06:01:04.142Z,80.42
2022-12-14T06:02:04.154Z,80.28
2022-12-14T06:03:04.134Z,80.07
2022-12-14T06:04:04.099Z,79.97
2022-12-14T06:05:04.213Z,80.38
2022-12-14T06:06:04.182Z,80.49
2022-12-14T06:07:04.134Z,80.07
2022-12-14T06:08:04.380Z,80.14
2022-12-14T06:09:03.958Z,80.14
2022-12-14T06:10:04.300Z,79.93
2022-12-14T06:11:03.903Z,79.51
2022-12-14T06:12:03.716Z,79.41
2022-12-14T06:13:03.515Z,78.99
2022-12-14T06:14:03.908Z,78.99
2022-12-14T06:15:03.940Z,78.95
2022-12-14T06:16:03.630Z,78.85
2022-12-14T06:17:04.166Z,79.27
2022-12-14T06:18:04.133Z,78.74
2022-12-14T06:19:04.033Z,78.32
2022-12-14T06:20:04.015Z,78.01
2022-12-14T06:21:04.132Z,78.01
2022-12-14T06:22:04.307Z,77.80
2022-12-14T06:23:04.362Z,77.91
2022-12-14T06:24:04.315Z,78.01
2022-12-14T06:25:04.193Z,77.91
2022-12-14T06:26:04.586Z,77.91
2022-12-14T06:27:03.727Z,77.48
2022-12-14T06:28:03.552Z,77.38
2022-12-14T06:29:03.518Z,77.28
2022-12-14T06:30:04.010Z,77.59
2022-12-14T06:31:03.921Z,77.55
2022-12-14T06:32:04.130Z,77.48
2022-12-14T06:33:03.853Z,77.38
2022-12-14T06:34:03.856Z,77.17
2022-12-14T06:35:03.754Z,77.17
2022-12-14T06:36:03.777Z,77.24
2022-12-14T06:37:03.814Z,76.96
2022-12-14T06:38:03.728Z,77.07
2022-12-14T06:39:03.953Z,77.45
2022-12-14T06:40:03.834Z,77.24
2022-12-14T06:41:03.868Z,77.14
2022-12-14T06:42:03.983Z,77.03
2022-12-14T06:43:04.089Z,77.24
2022-12-14T06:44:04.258Z,77.24
2022-12-14T06:45:03.849Z,77.34
2022-12-14T06:46:04.046Z,77.55
2022-12-14T06:47:04.048Z,77.00
2022-12-14T06:48:04.432Z,76.68
2022-12-14T06:49:04.203Z,76.79
2022-12-14T06:50:04.127Z,76.47
2022-12-14T06:51:04.377Z,76.89
2022-12-14T06:52:04.706Z,76.57
2022-12-14T06:53:04.641Z,76.37
2022-12-14T06:54:04.345Z,76.57
2022-12-14T06:55:04.472Z,76.61
2022-12-14T06:56:04.244Z,76.61
2022-12-14T06:57:04.018Z,76.51
2022-12-14T06:58:04.004Z,76.51
2022-12-14T06:59:03.762Z,76.40
2022-12-14T07:00:03.990Z,76.72
2022-12-14T07:01:03.815Z,76.72
2022-12-14T07:02:03.432Z,76.82
2022-12-14T07:03:03.714Z,76.79
2022-12-14T07:04:03.437Z,76.79
2022-12-14T07:05:03.424Z,76.68
2022-12-14T07:06:03.339Z,76.37
2022-12-14T07:07:04.107Z,76.37
2022-12-14T07:08:04.053Z,76.79
2022-12-14T07:09:04.117Z,76.89
2022-12-14T07:10:04.136Z,77.20
2022-12-14T07:11:03.562Z,77.10
2022-12-14T07:12:04.422Z,77.52
2022-12-14T07:13:04.044Z,77.73
2022-12-14T07:14:04.523Z,77.90
2022-12-14T07:15:04.470Z,78.01
2022-12-14T07:16:04.061Z,78.11
2022-12-14T07:17:03.483Z,77.48
2022-12-14T07:18:03.900Z,77.69
2022-12-14T07:19:03.749Z,77.90
2022-12-14T07:20:03.695Z,77.90
2022-12-14T07:21:03.702Z,77.69
2022-12-14T07:22:04.469Z,77.59
2022-12-14T07:23:04.025Z,77.48
2022-12-14T07:24:04.235Z,77.69
2022-12-14T07:25:04.035Z,78.11
2022-12-14T07:26:04.500Z,78.32
2022-12-14T07:27:04.138Z,78.53
2022-12-14T07:28:04.131Z,78.74
2022-12-14T07:29:04.075Z,79.05
2022-12-14T07:30:04.051Z,79.16
2022-12-14T07:31:04.070Z,79.26
2022-12-14T07:32:03.824Z,79.36
2022-12-14T07:33:03.935Z,79.47
2022-12-14T07:34:03.648Z,79.47
2022-12-14T07:35:04.211Z,79.58
2022-12-14T07:36:03.763Z,79.54
2022-12-14T07:37:04.462Z,79.44
2022-12-14T07:38:04.419Z,78.70
2022-12-14T07:39:04.089Z,78.28
2022-12-14T07:40:03.910Z,78.81
2022-12-14T07:41:04.238Z,78.91
2022-12-14T07:42:03.353Z,79.12
2022-12-14T07:43:03.741Z,79.22
2022-12-14T07:44:03.515Z,79.02
2022-12-14T07:45:03.288Z,78.91
2022-12-14T07:46:04.065Z,78.49
2022-12-14T07:47:03.943Z,78.08
2022-12-14T07:48:04.122Z,77.97
2022-12-14T07:49:03.566Z,77.97
2022-12-14T07:50:03.936Z,78.39
2022-12-14T07:51:03.993Z,78.70
2022-12-14T07:52:03.583Z,77.76
2022-12-14T07:53:03.615Z,77.45
2022-12-14T07:54:03.329Z,77.24
2022-12-14T07:55:03.390Z,77.24
2022-12-14T07:56:03.278Z,76.93
2022-12-14T07:57:03.674Z,76.93
2022-12-14T07:58:04.009Z,77.34
2022-12-14T07:59:04.056Z,77.55
2022-12-14T08:00:03.646Z,77.45
2022-12-14T08:01:04.110Z,77.87
2022-12-14T08:02:04.394Z,78.08
2022-12-14T08:03:04.333Z,77.87
2022-12-14T08:04:04.761Z,77.76
2022-12-14T08:05:07.859Z,78.22
2022-12-14T08:06:04.521Z,78.11
2022-12-14T08:07:04.988Z,78.11
2022-12-14T08:08:04.914Z,78.28
2022-12-14T08:09:04.969Z,78.28
2022-12-14T08:10:04.986Z,77.45
2022-12-14T08:11:04.795Z,78.08
2022-12-14T08:12:04.250Z,78.39
2022-12-14T08:13:04.294Z,78.18
2022-12-14T08:14:03.742Z,77.55
2022-12-14T08:15:04.074Z,77.24
2022-12-14T08:16:04.227Z,77.76
2022-12-14T08:17:04.434Z,77.66
2022-12-14T08:18:04.521Z,77.66
2022-12-14T08:19:04.564Z,77.76
2022-12-14T08:20:03.925Z,77.45
2022-12-14T08:21:04.485Z,76.93
2022-12-14T08:22:04.216Z,77.03
2022-12-14T08:23:04.359Z,77.34
2022-12-14T08:24:04.411Z,77.14
2022-12-14T08:25:04.138Z,77.06
2022-12-14T08:26:03.977Z,77.69
2022-12-14T08:27:04.349Z,78.01
2022-12-14T08:28:04.419Z,77.90
2022-12-14T08:29:04.385Z,78.42
2022-12-14T08:30:04.495Z,78.42
2022-12-14T08:31:04.434Z,78.22
2022-12-14T08:32:04.370Z,78.42
2022-12-14T08:33:04.497Z,78.22
2022-12-14T08:34:04.332Z,78.32
2022-12-14T08:35:04.295Z,78.42
2022-12-14T08:36:04.817Z,78.85
2022-12-14T08:37:03.974Z,79.05
2022-12-14T08:38:04.247Z,79.47
2022-12-14T08:39:03.799Z,79.47
2022-12-14T08:40:04.152Z,79.36
2022-12-14T08:41:04.254Z,79.68
2022-12-14T08:42:04.203Z,79.89
2022-12-14T08:43:04.223Z,79.85
2022-12-14T08:44:04.384Z,79.68
2022-12-14T08:45:04.156Z,79.89
2022-12-14T08:46:04.302Z,80.31
2022-12-14T08:47:04.640Z,80.10
2022-12-14T08:48:04.875Z,80.10
2022-12-14T08:49:04.953Z,80.10
2022-12-14T08:50:04.419Z,80.41
2022-12-14T08:51:04.885Z,80.73
2022-12-14T08:52:04.370Z,80.93
2022-12-14T08:53:04.347Z,81.35
2022-12-14T08:54:04.425Z,81.35
2022-12-14T08:55:04.506Z,81.56
2022-12-14T08:56:04.197Z,81.98
2022-12-14T08:57:04.410Z,81.98
2022-12-14T08:58:04.572Z,82.19
2022-12-14T08:59:04.556Z,82.40
2022-12-14T09:00:04.203Z,82.50
2022-12-14T09:01:04.664Z,83.13
2022-12-14T09:02:04.591Z,83.34
2022-12-14T09:03:04.929Z,83.34
2022-12-14T09:04:04.651Z,83.55
2022-12-14T09:05:04.818Z,83.86
2022-12-14T09:06:04.764Z,83.86
2022-12-14T09:07:04.462Z,83.93
2022-12-14T09:08:04.521Z,83.72
2022-12-14T09:09:04.662Z,84.03
2022-12-14T09:10:04.761Z,84.24
2022-12-14T09:11:04.240Z,84.03
2022-12-14T09:12:03.892Z,83.83
2022-12-14T09:13:03.808Z,83.83
2022-12-14T09:14:04.176Z,84.03
2022-12-14T09:15:04.198Z,84.66
2022-12-14T09:16:04.201Z,85.08
2022-12-14T09:17:04.449Z,85.08
2022-12-14T09:18:04.084Z,85.08
2022-12-14T09:19:04.213Z,85.91
2022-12-14T09:20:04.346Z,85.71
2022-12-14T09:21:04.479Z,85.39
2022-12-14T09:22:03.801Z,85.39
2022-12-14T09:23:03.816Z,85.29
2022-12-14T09:24:03.554Z,85.71
2022-12-14T09:25:04.056Z,86.16
2022-12-14T09:26:03.405Z,86.79
2022-12-14T09:27:03.865Z,86.90
2022-12-14T09:28:04.006Z,86.90
2022-12-14T09:29:04.078Z,87.10
2022-12-14T09:30:03.493Z,87.42
2022-12-14T09:31:03.972Z,87.52
2022-12-14T09:32:04.037Z,87.77
2022-12-14T09:33:04.318Z,88.40
2022-12-14T09:34:04.295Z,88.71
2022-12-14T09:35:04.119Z,88.78
2022-12-14T09:36:04.116Z,88.78
2022-12-14T09:37:04.232Z,89.20
2022-12-14T09:38:04.203Z,89.30
2022-12-14T09:39:04.237Z,89.05
2022-12-14T09:40:04.337Z,88.95
2022-12-14T09:41:07.049Z,89.15
2022-12-14T09:42:03.575Z,89.58
2022-12-14T09:43:03.758Z,89.15
2022-12-14T09:44:03.766Z,89.36
2022-12-14T09:45:03.170Z,89.43
2022-12-14T09:46:03.311Z,89.43
2022-12-14T09:47:04.156Z,89.11
2022-12-14T09:48:03.918Z,89.11
2022-12-14T09:49:04.058Z,89.32
2022-12-14T09:50:04.196Z,89.53
2022-12-14T09:51:04.367Z,89.01
2022-12-14T09:52:03.589Z,88.90
2022-12-14T09:53:03.447Z,89.32
2022-12-14T09:54:03.472Z,89.74
2022-12-14T09:55:03.594Z,89.43
2022-12-14T09:56:03.389Z,89.43
2022-12-14T09:57:04.041Z,89.32
2022-12-14T09:58:03.990Z,89.32
2022-12-14T09:59:03.722Z,89.64
2022-12-14T10:00:03.799Z,89.84
2022-12-14T10:01:03.886Z,89.64
2022-12-14T10:02:34.177Z,89.53
2022-12-14T10:03:06.877Z,89.49
2022-12-14T10:04:03.830Z,89.28
2022-12-14T10:05:03.709Z,89.18
2022-12-14T10:06:03.844Z,89.28
2022-12-14T10:07:03.978Z,89.07
2022-12-14T10:08:03.972Z,89.18
2022-12-14T10:09:03.351Z,89.18
2022-12-14T10:10:03.430Z,88.97
2022-12-14T10:11:03.924Z,88.82
2022-12-14T10:12:03.781Z,88.93
2022-12-14T10:13:03.799Z,88.62
2022-12-14T10:14:03.631Z,88.41
2022-12-14T10:15:03.549Z,88.82
2022-12-14T10:16:03.537Z,89.34
2022-12-14T10:17:04.276Z,89.56
2022-12-14T10:18:03.729Z,89.45
2022-12-14T10:19:04.151Z,89.34
2022-12-14T10:20:03.651Z,89.56
2022-12-14T10:21:03.910Z,89.66
2022-12-14T10:22:04.152Z,90.08
2022-12-14T10:23:04.255Z,89.76
2022-12-14T10:24:04.057Z,89.51
2022-12-14T10:25:03.712Z,89.41
2022-12-14T10:26:04.055Z,89.66
2022-12-14T10:27:02.966Z,89.66
2022-12-14T10:28:11.761Z,89.66
2022-12-14T10:29:03.199Z,89.83
2022-12-14T10:30:03.516Z,89.62
2022-12-14T10:31:03.099Z,89.51
2022-12-14T10:32:03.884Z,88.78
2022-12-14T10:33:03.400Z,88.47
2022-12-14T10:34:05.477Z,88.78
2022-12-14T10:35:03.544Z,88.89
2022-12-14T10:36:03.481Z,88.85
2022-12-14T10:37:03.431Z,88.75
2022-12-14T10:38:03.147Z,88.43
2022-12-14T10:39:03.492Z,88.75
2022-12-14T10:40:09.313Z,88.64
2022-12-14T10:41:03.209Z,88.12
2022-12-14T10:42:03.599Z,88.12
2022-12-14T10:43:03.077Z,88.01
2022-12-14T10:44:03.292Z,87.81
2022-12-14T10:45:31.558Z,87.70
2022-12-14T10:46:06.171Z,87.84
2022-12-14T10:47:03.938Z,87.95
2022-12-14T10:48:03.955Z,88.51
2022-12-14T10:49:03.969Z,88.72
2022-12-14T10:50:03.642Z,88.72
2022-12-14T10:51:03.655Z,89.14
2022-12-14T10:52:03.284Z,89.34
2022-12-14T10:53:03.297Z,89.59
2022-12-14T10:54:03.093Z,89.81
2022-12-14T10:55:02.870Z,90.22
2022-12-14T10:56:03.316Z,90.22
2022-12-14T10:57:03.557Z,90.53
2022-12-14T10:58:03.166Z,90.22
2022-12-14T10:59:03.217Z,89.91
2022-12-14T11:00:08.939Z,90.12
2022-12-14T11:01:03.374Z,89.91
2022-12-14T11:02:04.969Z,90.16
2022-12-14T11:03:04.961Z,90.47
2022-12-14T11:04:04.337Z,91.25
2022-12-14T11:05:04.710Z,91.20
2022-12-14T11:06:04.603Z,91.35
2022-12-14T11:07:03.775Z,91.56
2022-12-14T11:08:04.041Z,91.94
2022-12-14T11:09:03.928Z,91.72
2022-12-14T11:10:03.908Z,91.41
2022-12-14T11:11:03.944Z,91.41
2022-12-14T11:12:04.092Z,90.78
2022-12-14T11:13:04.372Z,91.03
2022-12-14T11:14:04.357Z,91.77
2022-12-14T11:15:04.206Z,91.87
2022-12-14T11:16:04.439Z,92.19
2022-12-14T11:17:04.069Z,92.14
2022-12-14T11:18:04.315Z,92.14
2022-12-14T11:19:04.511Z,91.94
2022-12-14T11:20:04.345Z,91.20
2022-12-14T11:21:04.459Z,90.89
2022-12-14T11:22:04.100Z,91.20
2022-12-14T11:23:04.333Z,91.31
2022-12-14T11:24:04.116Z,91.46
2022-12-14T11:25:04.474Z,91.87
2022-12-14T11:26:04.099Z,91.87
2022-12-14T11:27:03.601Z,91.94
2022-12-14T11:28:04.015Z,91.83
2022-12-14T11:29:04.212Z,91.62
2022-12-14T11:30:03.590Z,90.93
2022-12-14T11:31:03.704Z,91.14
2022-12-14T11:32:03.584Z,91.66
2022-12-14T11:33:03.851Z,92.08
2022-12-14T11:34:03.842Z,92.04
2022-12-14T11:35:03.771Z,91.52
2022-12-14T11:36:03.615Z,91.35
2022-12-14T11:37:03.264Z,91.25
2022-12-14T11:38:03.572Z,91.56
2022-12-14T11:39:03.476Z,91.87
2022-12-14T11:40:03.539Z,92.08
2022-12-14T11:41:10.669Z,91.77
2022-12-14T11:42:03.541Z,91.56
2022-12-14T11:43:03.881Z,91.66
2022-12-14T11:44:03.964Z,91.56
2022-12-14T11:45:04.039Z,91.35
2022-12-14T11:46:03.598Z,91.56
2022-12-14T11:47:03.783Z,91.98
2022-12-14T11:48:03.761Z,92.08
2022-12-14T11:49:03.844Z,92.19
2022-12-14T11:50:03.755Z,92.29
2022-12-14T11:51:03.683Z,92.19
2022-12-14T11:52:03.401Z,91.87
2022-12-14T11:53:09.359Z,91.56
2022-12-14T11:54:03.708Z,91.56
2022-12-14T11:55:03.655Z,91.35
2022-12-14T11:56:03.763Z,91.46
2022-12-14T11:57:03.824Z,91.87
2022-12-14T11:58:03.713Z,91.66
2022-12-14T11:59:03.991Z,91.66
2022-12-14T12:00:03.967Z,91.87
2022-12-14T12:01:04.039Z,91.98
2022-12-14T12:02:03.576Z,91.98
2022-12-14T12:03:03.643Z,91.87
2022-12-14T12:04:03.630Z,91.87
2022-12-14T12:05:03.615Z,91.87
2022-12-14T12:06:03.608Z,91.98
2022-12-14T12:07:04.679Z,91.87
2022-12-14T12:08:03.774Z,91.56
2022-12-14T12:09:03.805Z,91.62
2022-12-14T12:10:03.825Z,91.56
2022-12-14T12:11:03.865Z,91.46
2022-12-14T12:12:04.280Z,91.35
2022-12-14T12:13:04.199Z,91.46
2022-12-14T12:14:04.461Z,91.66
2022-12-14T12:15:04.327Z,91.98
2022-12-14T12:16:04.512Z,92.08
2022-12-14T12:17:04.198Z,92.19
2022-12-14T12:18:04.010Z,92.50
2022-12-14T12:19:11.239Z,92.19
2022-12-14T12:20:04.175Z,91.87
2022-12-14T12:21:04.027Z,92.19
2022-12-14T12:22:03.413Z,92.50
2022-12-14T12:23:03.401Z,92.82
2022-12-14T12:24:03.778Z,92.92
2022-12-14T12:26:03.269Z,92.08
2022-12-14T12:27:03.587Z,91.66
2022-12-14T12:28:03.648Z,91.98
2022-12-14T12:29:03.700Z,91.94
2022-12-14T12:30:03.663Z,91.83
2022-12-14T12:31:07.484Z,91.37
2022-12-14T12:32:03.914Z,91.06
2022-12-14T12:33:03.893Z,90.95
2022-12-14T12:34:03.709Z,90.53
2022-12-14T12:35:11.394Z,90.37
2022-12-14T12:36:04.041Z,90.64
2022-12-14T12:37:27.859Z,90.47
2022-12-14T12:38:04.291Z,90.78
2022-12-14T12:39:04.414Z,91.00
2022-12-14T12:40:04.433Z,90.78
2022-12-14T12:41:04.453Z,90.58
2022-12-14T12:42:05.367Z,90.68
2022-12-14T12:43:03.744Z,90.89
2022-12-14T12:44:03.736Z,91.10
2022-12-14T12:45:03.443Z,90.85
2022-12-14T12:46:03.262Z,90.95
2022-12-14T12:48:04.077Z,90.85
2022-12-14T12:49:04.096Z,90.70
2022-12-14T12:50:03.441Z,90.08
2022-12-14T12:51:03.766Z,89.56
2022-12-14T12:52:03.800Z,89.45
2022-12-14T12:53:04.440Z,89.66
2022-12-14T12:54:03.604Z,89.76